Nouveau site internet !.

Nouveau site internet !.

Bienvenue sur notre nouveau site internet !
Vous pouvez désormais commander votre vol à sensation ou d’initiation directement en ligne !

Patrouille Sparflex - figure aérienne - Fly and Fun

Voir toute les actualités.

Patrouille Sparflex - figure aérienne - Fly and Fun
Patrouille Sparflex - figure aérienne - Fly and Fun
METAR :

LFQA 191630Z AUTO 06012KT CAVOK 19/01 Q1026


vue en direct sur l'aérodrome
mentions légales politique de confidentialité
Cochet Concept
cx